sensor_id;sensor_type;location;lat;lon;timestamp;P1;durP1;ratioP1;P2;durP2;ratioP2
40599;SDS011;26309;50.924;4.754;2023-03-03T00:02:28;45.23;;;23.17;;
40599;SDS011;26309;50.924;4.754;2023-03-03T00:04:54;48.93;;;25.70;;
40599;SDS011;26309;50.924;4.754;2023-03-03T00:07:21;40.80;;;22.93;;
40599;SDS011;26309;50.924;4.754;2023-03-03T00:09:47;38.80;;;21.77;;
40599;SDS011;26309;50.924;4.754;2023-03-03T00:12:19;57.93;;;27.67;;
40599;SDS011;26309;50.924;4.754;2023-03-03T00:14:53;50.80;;;26.23;;
40599;SDS011;26309;50.924;4.754;2023-03-03T00:17:21;51.30;;;27.47;;
40599;SDS011;26309;50.924;4.754;2023-03-03T00:19:49;47.97;;;26.23;;
40599;SDS011;26309;50.924;4.754;2023-03-03T00:24:57;48.33;;;26.57;;
40599;SDS011;26309;50.924;4.754;2023-03-03T00:27:30;42.83;;;23.80;;
40599;SDS011;26309;50.924;4.754;2023-03-03T00:30:00;46.93;;;24.70;;
40599;SDS011;26309;50.924;4.754;2023-03-03T00:34:57;45.03;;;24.77;;
40599;SDS011;26309;50.924;4.754;2023-03-03T00:37:45;46.57;;;26.73;;
40599;SDS011;26309;50.924;4.754;2023-03-03T00:42:49;47.60;;;25.13;;
40599;SDS011;26309;50.924;4.754;2023-03-03T00:47:52;56.20;;;29.43;;
40599;SDS011;26309;50.924;4.754;2023-03-03T00:53:02;58.47;;;29.20;;
40599;SDS011;26309;50.924;4.754;2023-03-03T00:55:36;54.90;;;28.80;;
40599;SDS011;26309;50.924;4.754;2023-03-03T00:58:02;54.70;;;28.50;;
40599;SDS011;26309;50.924;4.754;2023-03-03T01:00:32;58.57;;;31.13;;
40599;SDS011;26309;50.924;4.754;2023-03-03T01:02:59;56.60;;;28.43;;
40599;SDS011;26309;50.924;4.754;2023-03-03T01:05:28;59.87;;;29.70;;
40599;SDS011;26309;50.924;4.754;2023-03-03T01:07:56;51.07;;;26.90;;
40599;SDS011;26309;50.924;4.754;2023-03-03T01:10:22;53.77;;;27.07;;
40599;SDS011;26309;50.924;4.754;2023-03-03T01:12:48;56.27;;;29.63;;
40599;SDS011;26309;50.924;4.754;2023-03-03T01:15:15;53.93;;;26.30;;
40599;SDS011;26309;50.924;4.754;2023-03-03T01:17:41;55.43;;;28.30;;
40599;SDS011;26309;50.924;4.754;2023-03-03T01:20:08;54.70;;;27.67;;
40599;SDS011;26309;50.924;4.754;2023-03-03T01:22:37;51.50;;;26.03;;
40599;SDS011;26309;50.924;4.754;2023-03-03T01:25:04;57.97;;;27.50;;
40599;SDS011;26309;50.924;4.754;2023-03-03T01:27:31;58.30;;;29.07;;
40599;SDS011;26309;50.924;4.754;2023-03-03T01:29:58;50.23;;;27.30;;
40599;SDS011;26309;50.924;4.754;2023-03-03T01:32:25;48.87;;;25.70;;
40599;SDS011;26309;50.924;4.754;2023-03-03T01:34:52;51.13;;;27.03;;
40599;SDS011;26309;50.924;4.754;2023-03-03T01:37:19;56.63;;;26.63;;
40599;SDS011;26309;50.924;4.754;2023-03-03T01:39:52;53.53;;;27.13;;
40599;SDS011;26309;50.924;4.754;2023-03-03T01:42:18;58.60;;;29.07;;
40599;SDS011;26309;50.924;4.754;2023-03-03T01:44:45;55.57;;;28.27;;
40599;SDS011;26309;50.924;4.754;2023-03-03T01:47:12;62.97;;;29.97;;
40599;SDS011;26309;50.924;4.754;2023-03-03T01:49:49;57.83;;;28.67;;
40599;SDS011;26309;50.924;4.754;2023-03-03T01:52:46;50.23;;;25.93;;
40599;SDS011;26309;50.924;4.754;2023-03-03T01:55:13;48.30;;;24.07;;
40599;SDS011;26309;50.924;4.754;2023-03-03T01:57:45;46.90;;;24.57;;
40599;SDS011;26309;50.924;4.754;2023-03-03T02:00:17;55.33;;;26.50;;
40599;SDS011;26309;50.924;4.754;2023-03-03T02:02:44;58.10;;;28.73;;
40599;SDS011;26309;50.924;4.754;2023-03-03T02:05:10;51.73;;;27.27;;
40599;SDS011;26309;50.924;4.754;2023-03-03T02:07:38;62.20;;;29.43;;
40599;SDS011;26309;50.924;4.754;2023-03-03T02:10:06;58.53;;;28.10;;
40599;SDS011;26309;50.924;4.754;2023-03-03T02:12:41;61.60;;;31.40;;
40599;SDS011;26309;50.924;4.754;2023-03-03T02:17:43;64.73;;;29.37;;
40599;SDS011;26309;50.924;4.754;2023-03-03T02:20:56;67.30;;;32.00;;
40599;SDS011;26309;50.924;4.754;2023-03-03T02:26:12;57.20;;;27.33;;
40599;SDS011;26309;50.924;4.754;2023-03-03T02:28:50;59.93;;;28.43;;
40599;SDS011;26309;50.924;4.754;2023-03-03T02:31:17;58.70;;;28.87;;
40599;SDS011;26309;50.924;4.754;2023-03-03T02:33:47;62.73;;;28.80;;
40599;SDS011;26309;50.924;4.754;2023-03-03T02:36:15;62.30;;;28.73;;
40599;SDS011;26309;50.924;4.754;2023-03-03T02:44:05;65.77;;;30.53;;
40599;SDS011;26309;50.924;4.754;2023-03-03T02:46:35;55.60;;;28.20;;
40599;SDS011;26309;50.924;4.754;2023-03-03T02:49:03;56.43;;;26.50;;
40599;SDS011;26309;50.924;4.754;2023-03-03T02:51:30;59.13;;;26.93;;
40599;SDS011;26309;50.924;4.754;2023-03-03T02:53:59;61.27;;;28.27;;
40599;SDS011;26309;50.924;4.754;2023-03-03T02:56:25;59.73;;;28.53;;
40599;SDS011;26309;50.924;4.754;2023-03-03T02:58:52;57.13;;;28.47;;
40599;SDS011;26309;50.924;4.754;2023-03-03T03:01:18;56.07;;;28.50;;
40599;SDS011;26309;50.924;4.754;2023-03-03T03:03:44;58.00;;;29.57;;
40599;SDS011;26309;50.924;4.754;2023-03-03T03:06:10;65.37;;;29.63;;
40599;SDS011;26309;50.924;4.754;2023-03-03T03:08:36;60.30;;;30.07;;
40599;SDS011;26309;50.924;4.754;2023-03-03T03:11:02;63.60;;;30.50;;
40599;SDS011;26309;50.924;4.754;2023-03-03T03:13:30;54.77;;;26.93;;
40599;SDS011;26309;50.924;4.754;2023-03-03T03:15:56;63.40;;;29.50;;
40599;SDS011;26309;50.924;4.754;2023-03-03T03:18:23;64.43;;;29.70;;
40599;SDS011;26309;50.924;4.754;2023-03-03T03:20:49;59.97;;;28.93;;
40599;SDS011;26309;50.924;4.754;2023-03-03T03:23:15;65.90;;;29.90;;
40599;SDS011;26309;50.924;4.754;2023-03-03T03:25:42;65.40;;;29.83;;
40599;SDS011;26309;50.924;4.754;2023-03-03T03:28:12;56.80;;;27.17;;
40599;SDS011;26309;50.924;4.754;2023-03-03T03:30:39;56.17;;;28.40;;
40599;SDS011;26309;50.924;4.754;2023-03-03T03:33:06;64.40;;;29.37;;
40599;SDS011;26309;50.924;4.754;2023-03-03T03:35:33;62.03;;;28.60;;
40599;SDS011;26309;50.924;4.754;2023-03-03T03:37:59;66.33;;;31.57;;
40599;SDS011;26309;50.924;4.754;2023-03-03T03:40:25;75.27;;;35.43;;
40599;SDS011;26309;50.924;4.754;2023-03-03T03:42:52;69.83;;;34.70;;
40599;SDS011;26309;50.924;4.754;2023-03-03T03:45:18;79.40;;;36.03;;
40599;SDS011;26309;50.924;4.754;2023-03-03T03:47:44;90.47;;;39.27;;
40599;SDS011;26309;50.924;4.754;2023-03-03T03:50:11;82.17;;;38.03;;
40599;SDS011;26309;50.924;4.754;2023-03-03T03:52:37;84.93;;;37.33;;
40599;SDS011;26309;50.924;4.754;2023-03-03T03:55:03;78.07;;;37.47;;
40599;SDS011;26309;50.924;4.754;2023-03-03T03:57:29;83.13;;;38.83;;
40599;SDS011;26309;50.924;4.754;2023-03-03T03:59:56;81.20;;;37.43;;
40599;SDS011;26309;50.924;4.754;2023-03-03T04:02:22;79.43;;;35.83;;
40599;SDS011;26309;50.924;4.754;2023-03-03T04:04:48;74.50;;;35.57;;
40599;SDS011;26309;50.924;4.754;2023-03-03T04:07:14;74.53;;;36.63;;
40599;SDS011;26309;50.924;4.754;2023-03-03T04:09:40;77.37;;;38.07;;
40599;SDS011;26309;50.924;4.754;2023-03-03T04:12:06;85.57;;;38.23;;
40599;SDS011;26309;50.924;4.754;2023-03-03T04:14:32;78.50;;;36.93;;
40599;SDS011;26309;50.924;4.754;2023-03-03T04:16:58;77.27;;;37.40;;
40599;SDS011;26309;50.924;4.754;2023-03-03T04:19:23;81.57;;;37.47;;
40599;SDS011;26309;50.924;4.754;2023-03-03T04:21:50;76.80;;;37.30;;
40599;SDS011;26309;50.924;4.754;2023-03-03T04:24:16;72.60;;;36.47;;
40599;SDS011;26309;50.924;4.754;2023-03-03T04:26:46;73.70;;;35.63;;
40599;SDS011;26309;50.924;4.754;2023-03-03T04:29:13;75.00;;;35.80;;
40599;SDS011;26309;50.924;4.754;2023-03-03T04:31:39;75.27;;;36.93;;
40599;SDS011;26309;50.924;4.754;2023-03-03T04:34:05;71.87;;;34.97;;
40599;SDS011;26309;50.924;4.754;2023-03-03T04:36:31;75.10;;;37.00;;
40599;SDS011;26309;50.924;4.754;2023-03-03T04:39:00;74.20;;;36.70;;
40599;SDS011;26309;50.924;4.754;2023-03-03T04:41:26;75.47;;;35.33;;
40599;SDS011;26309;50.924;4.754;2023-03-03T04:43:52;53.17;;;23.47;;
40599;SDS011;26309;50.924;4.754;2023-03-03T04:46:18;60.37;;;32.00;;
40599;SDS011;26309;50.924;4.754;2023-03-03T04:48:44;69.37;;;34.37;;
40599;SDS011;26309;50.924;4.754;2023-03-03T04:51:10;71.77;;;34.17;;
40599;SDS011;26309;50.924;4.754;2023-03-03T04:53:35;72.13;;;34.77;;
40599;SDS011;26309;50.924;4.754;2023-03-03T04:56:02;68.77;;;34.33;;
40599;SDS011;26309;50.924;4.754;2023-03-03T04:58:29;71.30;;;36.40;;
40599;SDS011;26309;50.924;4.754;2023-03-03T05:00:55;72.30;;;36.40;;
40599;SDS011;26309;50.924;4.754;2023-03-03T05:03:22;74.93;;;36.00;;
40599;SDS011;26309;50.924;4.754;2023-03-03T05:05:48;71.30;;;34.63;;
40599;SDS011;26309;50.924;4.754;2023-03-03T05:08:14;71.37;;;35.07;;
40599;SDS011;26309;50.924;4.754;2023-03-03T05:10:40;76.03;;;37.07;;
40599;SDS011;26309;50.924;4.754;2023-03-03T05:13:06;73.30;;;36.77;;
40599;SDS011;26309;50.924;4.754;2023-03-03T05:15:33;74.37;;;35.73;;
40599;SDS011;26309;50.924;4.754;2023-03-03T05:17:59;73.73;;;37.77;;
40599;SDS011;26309;50.924;4.754;2023-03-03T05:20:25;73.17;;;35.23;;
40599;SDS011;26309;50.924;4.754;2023-03-03T05:22:51;70.93;;;36.33;;
40599;SDS011;26309;50.924;4.754;2023-03-03T05:25:17;80.83;;;37.07;;
40599;SDS011;26309;50.924;4.754;2023-03-03T05:27:43;77.53;;;36.77;;
40599;SDS011;26309;50.924;4.754;2023-03-03T05:30:10;79.60;;;38.50;;
40599;SDS011;26309;50.924;4.754;2023-03-03T05:32:36;77.53;;;37.70;;
40599;SDS011;26309;50.924;4.754;2023-03-03T05:35:03;67.97;;;32.33;;
40599;SDS011;26309;50.924;4.754;2023-03-03T05:37:29;69.83;;;33.77;;
40599;SDS011;26309;50.924;4.754;2023-03-03T05:39:55;74.93;;;36.70;;
40599;SDS011;26309;50.924;4.754;2023-03-03T05:42:21;72.73;;;35.77;;
40599;SDS011;26309;50.924;4.754;2023-03-03T05:44:47;71.40;;;36.37;;
40599;SDS011;26309;50.924;4.754;2023-03-03T05:47:13;78.70;;;36.20;;
40599;SDS011;26309;50.924;4.754;2023-03-03T05:49:40;83.67;;;37.17;;
40599;SDS011;26309;50.924;4.754;2023-03-03T05:52:05;67.37;;;35.97;;
40599;SDS011;26309;50.924;4.754;2023-03-03T05:54:33;74.33;;;36.90;;
40599;SDS011;26309;50.924;4.754;2023-03-03T05:57:00;74.20;;;35.07;;
40599;SDS011;26309;50.924;4.754;2023-03-03T05:59:27;44.30;;;23.53;;
40599;SDS011;26309;50.924;4.754;2023-03-03T06:01:53;65.50;;;33.33;;
40599;SDS011;26309;50.924;4.754;2023-03-03T06:04:19;51.43;;;25.80;;
40599;SDS011;26309;50.924;4.754;2023-03-03T06:06:44;67.93;;;34.47;;
40599;SDS011;26309;50.924;4.754;2023-03-03T06:09:10;65.03;;;32.23;;
40599;SDS011;26309;50.924;4.754;2023-03-03T06:11:36;66.00;;;33.73;;
40599;SDS011;26309;50.924;4.754;2023-03-03T06:14:02;72.33;;;36.37;;
40599;SDS011;26309;50.924;4.754;2023-03-03T06:16:28;72.17;;;34.33;;
40599;SDS011;26309;50.924;4.754;2023-03-03T06:18:54;70.67;;;35.03;;
40599;SDS011;26309;50.924;4.754;2023-03-03T06:21:19;67.77;;;34.47;;
40599;SDS011;26309;50.924;4.754;2023-03-03T06:23:45;80.53;;;38.00;;
40599;SDS011;26309;50.924;4.754;2023-03-03T06:26:12;76.90;;;38.07;;
40599;SDS011;26309;50.924;4.754;2023-03-03T06:28:37;86.20;;;40.07;;
40599;SDS011;26309;50.924;4.754;2023-03-03T06:31:03;83.03;;;38.57;;
40599;SDS011;26309;50.924;4.754;2023-03-03T06:33:29;83.37;;;37.93;;
40599;SDS011;26309;50.924;4.754;2023-03-03T06:35:55;79.70;;;36.03;;
40599;SDS011;26309;50.924;4.754;2023-03-03T06:38:23;78.97;;;36.07;;
40599;SDS011;26309;50.924;4.754;2023-03-03T06:40:49;74.50;;;34.63;;
40599;SDS011;26309;50.924;4.754;2023-03-03T06:43:14;77.00;;;35.73;;
40599;SDS011;26309;50.924;4.754;2023-03-03T06:45:40;71.97;;;34.40;;
40599;SDS011;26309;50.924;4.754;2023-03-03T06:48:07;70.63;;;33.40;;
40599;SDS011;26309;50.924;4.754;2023-03-03T06:50:33;69.13;;;34.33;;
40599;SDS011;26309;50.924;4.754;2023-03-03T06:53:20;72.93;;;34.93;;
40599;SDS011;26309;50.924;4.754;2023-03-03T06:55:45;73.93;;;35.00;;
40599;SDS011;26309;50.924;4.754;2023-03-03T06:58:18;72.93;;;33.03;;
40599;SDS011;26309;50.924;4.754;2023-03-03T07:00:58;80.20;;;37.33;;
40599;SDS011;26309;50.924;4.754;2023-03-03T07:03:26;76.20;;;34.27;;
40599;SDS011;26309;50.924;4.754;2023-03-03T07:05:57;71.30;;;36.37;;
40599;SDS011;26309;50.924;4.754;2023-03-03T07:08:24;70.27;;;33.70;;
40599;SDS011;26309;50.924;4.754;2023-03-03T07:10:51;67.57;;;31.83;;
40599;SDS011;26309;50.924;4.754;2023-03-03T07:15:44;67.50;;;32.33;;
40599;SDS011;26309;50.924;4.754;2023-03-03T07:18:20;65.30;;;32.60;;
40599;SDS011;26309;50.924;4.754;2023-03-03T07:21:15;65.23;;;32.70;;
40599;SDS011;26309;50.924;4.754;2023-03-03T07:23:49;66.60;;;32.17;;
40599;SDS011;26309;50.924;4.754;2023-03-03T07:26:35;72.53;;;33.73;;
40599;SDS011;26309;50.924;4.754;2023-03-03T07:31:46;64.00;;;31.53;;
40599;SDS011;26309;50.924;4.754;2023-03-03T07:36:54;54.63;;;29.23;;
40599;SDS011;26309;50.924;4.754;2023-03-03T07:42:01;43.90;;;22.83;;
40599;SDS011;26309;50.924;4.754;2023-03-03T07:44:39;46.50;;;24.37;;
40599;SDS011;26309;50.924;4.754;2023-03-03T07:47:48;47.77;;;24.13;;
40599;SDS011;26309;50.924;4.754;2023-03-03T07:50:00;36.47;;;18.90;;
40599;SDS011;26309;50.924;4.754;2023-03-03T07:52:42;56.57;;;27.40;;
40599;SDS011;26309;50.924;4.754;2023-03-03T07:55:30;56.77;;;28.73;;
40599;SDS011;26309;50.924;4.754;2023-03-03T08:03:16;55.40;;;27.40;;
40599;SDS011;26309;50.924;4.754;2023-03-03T08:05:48;60.60;;;27.30;;
40599;SDS011;26309;50.924;4.754;2023-03-03T08:08:25;55.97;;;29.33;;
40599;SDS011;26309;50.924;4.754;2023-03-03T08:10:55;53.20;;;25.77;;
40599;SDS011;26309;50.924;4.754;2023-03-03T08:15:59;50.73;;;25.70;;
40599;SDS011;26309;50.924;4.754;2023-03-03T08:18:29;37.40;;;19.80;;
40599;SDS011;26309;50.924;4.754;2023-03-03T08:21:01;48.27;;;24.83;;
40599;SDS011;26309;50.924;4.754;2023-03-03T08:23:33;53.67;;;26.83;;
40599;SDS011;26309;50.924;4.754;2023-03-03T08:25:59;50.20;;;25.77;;
40599;SDS011;26309;50.924;4.754;2023-03-03T08:28:25;46.93;;;21.90;;
40599;SDS011;26309;50.924;4.754;2023-03-03T08:30:51;49.90;;;24.90;;
40599;SDS011;26309;50.924;4.754;2023-03-03T08:33:20;49.80;;;25.17;;
40599;SDS011;26309;50.924;4.754;2023-03-03T08:35:46;49.23;;;23.60;;
40599;SDS011;26309;50.924;4.754;2023-03-03T08:38:13;43.83;;;21.60;;
40599;SDS011;26309;50.924;4.754;2023-03-03T08:40:40;48.87;;;24.53;;
40599;SDS011;26309;50.924;4.754;2023-03-03T08:43:07;47.73;;;23.43;;
40599;SDS011;26309;50.924;4.754;2023-03-03T08:45:34;53.47;;;24.70;;
40599;SDS011;26309;50.924;4.754;2023-03-03T08:48:00;48.77;;;25.03;;
40599;SDS011;26309;50.924;4.754;2023-03-03T08:50:27;50.23;;;24.33;;
40599;SDS011;26309;50.924;4.754;2023-03-03T08:52:53;54.47;;;26.13;;
40599;SDS011;26309;50.924;4.754;2023-03-03T08:55:20;53.17;;;25.70;;
40599;SDS011;26309;50.924;4.754;2023-03-03T08:57:46;54.67;;;26.77;;
40599;SDS011;26309;50.924;4.754;2023-03-03T09:00:13;56.37;;;26.57;;
40599;SDS011;26309;50.924;4.754;2023-03-03T09:02:41;54.13;;;26.73;;
40599;SDS011;26309;50.924;4.754;2023-03-03T09:05:07;53.83;;;26.80;;
40599;SDS011;26309;50.924;4.754;2023-03-03T09:07:33;56.23;;;26.07;;
40599;SDS011;26309;50.924;4.754;2023-03-03T09:09:59;60.13;;;28.03;;
40599;SDS011;26309;50.924;4.754;2023-03-03T09:12:32;57.13;;;28.07;;
40599;SDS011;26309;50.924;4.754;2023-03-03T09:16:01;58.77;;;29.37;;
40599;SDS011;26309;50.924;4.754;2023-03-03T09:18:13;60.50;;;28.23;;
40599;SDS011;26309;50.924;4.754;2023-03-03T09:26:44;55.33;;;26.57;;
40599;SDS011;26309;50.924;4.754;2023-03-03T09:29:36;57.80;;;28.33;;
40599;SDS011;26309;50.924;4.754;2023-03-03T09:31:48;44.43;;;21.80;;
40599;SDS011;26309;50.924;4.754;2023-03-03T09:37:01;60.20;;;27.07;;
40599;SDS011;26309;50.924;4.754;2023-03-03T09:39:47;56.80;;;27.23;;
40599;SDS011;26309;50.924;4.754;2023-03-03T09:45:27;48.27;;;23.93;;
40599;SDS011;26309;50.924;4.754;2023-03-03T09:54:11;63.23;;;27.10;;
40599;SDS011;26309;50.924;4.754;2023-03-03T09:56:53;56.27;;;26.30;;
40599;SDS011;26309;50.924;4.754;2023-03-03T10:10:51;52.30;;;26.33;;
40599;SDS011;26309;50.924;4.754;2023-03-03T10:26:57;52.50;;;25.93;;
40599;SDS011;26309;50.924;4.754;2023-03-03T10:35:22;51.57;;;25.97;;
40599;SDS011;26309;50.924;4.754;2023-03-03T10:38:01;55.67;;;27.47;;
40599;SDS011;26309;50.924;4.754;2023-03-03T10:57:22;49.93;;;25.33;;
40599;SDS011;26309;50.924;4.754;2023-03-03T11:00:07;54.90;;;26.27;;
40599;SDS011;26309;50.924;4.754;2023-03-03T11:05:15;39.43;;;21.27;;
40599;SDS011;26309;50.924;4.754;2023-03-03T11:08:13;43.93;;;23.03;;
40599;SDS011;26309;50.924;4.754;2023-03-03T11:22:05;45.27;;;23.43;;
40599;SDS011;26309;50.924;4.754;2023-03-03T11:25:14;45.93;;;21.37;;
40599;SDS011;26309;50.924;4.754;2023-03-03T11:31:01;42.60;;;22.63;;
40599;SDS011;26309;50.924;4.754;2023-03-03T11:33:51;45.73;;;23.07;;
40599;SDS011;26309;50.924;4.754;2023-03-03T11:36:43;40.33;;;20.67;;
40599;SDS011;26309;50.924;4.754;2023-03-03T11:39:20;40.93;;;19.70;;
40599;SDS011;26309;50.924;4.754;2023-03-03T11:45:04;45.97;;;22.77;;
40599;SDS011;26309;50.924;4.754;2023-03-03T11:47:56;43.53;;;21.37;;
40599;SDS011;26309;50.924;4.754;2023-03-03T11:55:51;35.17;;;19.93;;
40599;SDS011;26309;50.924;4.754;2023-03-03T11:58:46;38.57;;;19.83;;
40599;SDS011;26309;50.924;4.754;2023-03-03T12:04:00;35.80;;;19.20;;
40599;SDS011;26309;50.924;4.754;2023-03-03T12:09:20;34.73;;;19.27;;
40599;SDS011;26309;50.924;4.754;2023-03-03T12:48:57;34.47;;;19.73;;
40599;SDS011;26309;50.924;4.754;2023-03-03T12:54:18;32.97;;;19.47;;
40599;SDS011;26309;50.924;4.754;2023-03-03T12:56:59;34.17;;;18.60;;
40599;SDS011;26309;50.924;4.754;2023-03-03T12:59:43;37.90;;;20.77;;
40599;SDS011;26309;50.924;4.754;2023-03-03T13:07:52;33.07;;;18.77;;
40599;SDS011;26309;50.924;4.754;2023-03-03T13:13:39;33.73;;;19.00;;
40599;SDS011;26309;50.924;4.754;2023-03-03T13:16:20;32.40;;;18.00;;
40599;SDS011;26309;50.924;4.754;2023-03-03T13:21:35;33.03;;;19.43;;
40599;SDS011;26309;50.924;4.754;2023-03-03T13:26:55;35.60;;;19.10;;
40599;SDS011;26309;50.924;4.754;2023-03-03T13:29:40;30.23;;;17.97;;
40599;SDS011;26309;50.924;4.754;2023-03-03T13:32:11;36.10;;;20.63;;
40599;SDS011;26309;50.924;4.754;2023-03-03T13:34:45;34.77;;;18.90;;
40599;SDS011;26309;50.924;4.754;2023-03-03T13:37:28;34.73;;;18.77;;
40599;SDS011;26309;50.924;4.754;2023-03-03T13:42:37;33.60;;;19.23;;
40599;SDS011;26309;50.924;4.754;2023-03-03T13:50:46;30.47;;;16.90;;
40599;SDS011;26309;50.924;4.754;2023-03-03T13:56:01;31.33;;;17.90;;
40599;SDS011;26309;50.924;4.754;2023-03-03T14:07:26;27.77;;;16.23;;
40599;SDS011;26309;50.924;4.754;2023-03-03T14:15:10;30.03;;;17.60;;
40599;SDS011;26309;50.924;4.754;2023-03-03T14:17:50;30.97;;;16.57;;
40599;SDS011;26309;50.924;4.754;2023-03-03T14:20:28;29.00;;;17.07;;
40599;SDS011;26309;50.924;4.754;2023-03-03T14:23:00;33.50;;;17.97;;
40599;SDS011;26309;50.924;4.754;2023-03-03T14:28:40;29.97;;;16.23;;
40599;SDS011;26309;50.924;4.754;2023-03-03T14:36:48;28.37;;;16.60;;
40599;SDS011;26309;50.924;4.754;2023-03-03T14:39:36;29.83;;;15.73;;
40599;SDS011;26309;50.924;4.754;2023-03-03T14:42:13;29.27;;;16.03;;
40599;SDS011;26309;50.924;4.754;2023-03-03T14:44:55;32.37;;;16.53;;
40599;SDS011;26309;50.924;4.754;2023-03-03T14:47:27;24.70;;;14.40;;
40599;SDS011;26309;50.924;4.754;2023-03-03T14:49:54;26.20;;;14.80;;
40599;SDS011;26309;50.924;4.754;2023-03-03T14:52:28;25.50;;;15.93;;
40599;SDS011;26309;50.924;4.754;2023-03-03T14:54:58;25.67;;;14.23;;
40599;SDS011;26309;50.924;4.754;2023-03-03T15:07:57;21.40;;;13.17;;
40599;SDS011;26309;50.924;4.754;2023-03-03T15:18:28;20.70;;;12.23;;
40599;SDS011;26309;50.924;4.754;2023-03-03T15:21:14;21.03;;;10.63;;
40599;SDS011;26309;50.924;4.754;2023-03-03T15:30:00;19.13;;;12.40;;
40599;SDS011;26309;50.924;4.754;2023-03-03T15:32:57;19.80;;;11.40;;
40599;SDS011;26309;50.924;4.754;2023-03-03T15:36:00;17.10;;;11.13;;
40599;SDS011;26309;50.924;4.754;2023-03-03T15:39:33;18.37;;;11.37;;
40599;SDS011;26309;50.924;4.754;2023-03-03T15:42:12;18.73;;;11.07;;
40599;SDS011;26309;50.924;4.754;2023-03-03T15:47:58;19.50;;;11.30;;
40599;SDS011;26309;50.924;4.754;2023-03-03T15:50:36;18.90;;;11.53;;
40599;SDS011;26309;50.924;4.754;2023-03-03T15:56:19;19.57;;;10.50;;
40599;SDS011;26309;50.924;4.754;2023-03-03T16:01:52;14.47;;;9.37;;
40599;SDS011;26309;50.924;4.754;2023-03-03T16:04:28;17.13;;;10.13;;
40599;SDS011;26309;50.924;4.754;2023-03-03T16:09:49;18.80;;;10.37;;
40599;SDS011;26309;50.924;4.754;2023-03-03T16:18:10;16.70;;;10.27;;
40599;SDS011;26309;50.924;4.754;2023-03-03T16:23:46;21.23;;;10.63;;
40599;SDS011;26309;50.924;4.754;2023-03-03T16:27:02;16.07;;;11.13;;
40599;SDS011;26309;50.924;4.754;2023-03-03T16:32:14;20.27;;;10.93;;
40599;SDS011;26309;50.924;4.754;2023-03-03T16:34:56;17.87;;;10.53;;
40599;SDS011;26309;50.924;4.754;2023-03-03T16:37:38;17.47;;;10.53;;
40599;SDS011;26309;50.924;4.754;2023-03-03T16:42:58;15.80;;;9.93;;
40599;SDS011;26309;50.924;4.754;2023-03-03T16:45:45;16.20;;;10.60;;
40599;SDS011;26309;50.924;4.754;2023-03-03T16:53:50;18.13;;;10.70;;
40599;SDS011;26309;50.924;4.754;2023-03-03T16:56:24;20.10;;;10.70;;
40599;SDS011;26309;50.924;4.754;2023-03-03T17:07:07;17.83;;;10.90;;
40599;SDS011;26309;50.924;4.754;2023-03-03T17:12:39;17.50;;;9.63;;
40599;SDS011;26309;50.924;4.754;2023-03-03T17:21:13;20.63;;;10.50;;
40599;SDS011;26309;50.924;4.754;2023-03-03T17:23:52;17.70;;;11.13;;
40599;SDS011;26309;50.924;4.754;2023-03-03T17:38:14;16.90;;;10.00;;
40599;SDS011;26309;50.924;4.754;2023-03-03T17:43:51;14.30;;;9.50;;
40599;SDS011;26309;50.924;4.754;2023-03-03T17:52:22;16.87;;;10.23;;
40599;SDS011;26309;50.924;4.754;2023-03-03T18:07:20;18.03;;;9.83;;
40599;SDS011;26309;50.924;4.754;2023-03-03T18:18:00;13.47;;;9.07;;
40599;SDS011;26309;50.924;4.754;2023-03-03T18:22:53;12.50;;;8.97;;
40599;SDS011;26309;50.924;4.754;2023-03-03T18:25:23;14.63;;;8.67;;
40599;SDS011;26309;50.924;4.754;2023-03-03T18:30:29;14.30;;;8.57;;
40599;SDS011;26309;50.924;4.754;2023-03-03T18:33:16;15.87;;;9.03;;
40599;SDS011;26309;50.924;4.754;2023-03-03T18:36:11;16.37;;;9.57;;
40599;SDS011;26309;50.924;4.754;2023-03-03T18:38:50;15.57;;;9.73;;
40599;SDS011;26309;50.924;4.754;2023-03-03T18:41:22;20.43;;;9.97;;
40599;SDS011;26309;50.924;4.754;2023-03-03T18:43:52;19.70;;;11.80;;
40599;SDS011;26309;50.924;4.754;2023-03-03T18:56:46;15.67;;;10.40;;
40599;SDS011;26309;50.924;4.754;2023-03-03T19:05:14;14.53;;;9.73;;
40599;SDS011;26309;50.924;4.754;2023-03-03T19:07:53;14.40;;;9.27;;
40599;SDS011;26309;50.924;4.754;2023-03-03T19:19:01;18.10;;;9.77;;
40599;SDS011;26309;50.924;4.754;2023-03-03T19:21:35;17.90;;;10.67;;
40599;SDS011;26309;50.924;4.754;2023-03-03T19:24:35;16.33;;;9.60;;
40599;SDS011;26309;50.924;4.754;2023-03-03T19:27:01;15.23;;;9.27;;
40599;SDS011;26309;50.924;4.754;2023-03-03T19:30:06;15.20;;;10.20;;
40599;SDS011;26309;50.924;4.754;2023-03-03T19:32:39;16.33;;;10.57;;
40599;SDS011;26309;50.924;4.754;2023-03-03T19:41:26;16.77;;;9.60;;
40599;SDS011;26309;50.924;4.754;2023-03-03T19:47:02;15.00;;;10.43;;
40599;SDS011;26309;50.924;4.754;2023-03-03T20:00:39;13.47;;;10.13;;
40599;SDS011;26309;50.924;4.754;2023-03-03T20:26:14;10.63;;;9.03;;
40599;SDS011;26309;50.924;4.754;2023-03-03T20:38:01;9.93;;;8.23;;
40599;SDS011;26309;50.924;4.754;2023-03-03T20:41:05;10.90;;;7.87;;
40599;SDS011;26309;50.924;4.754;2023-03-03T20:46:38;11.57;;;8.17;;
40599;SDS011;26309;50.924;4.754;2023-03-03T20:52:00;10.50;;;8.57;;
40599;SDS011;26309;50.924;4.754;2023-03-03T20:57:29;8.80;;;8.00;;
40599;SDS011;26309;50.924;4.754;2023-03-03T21:00:33;12.70;;;8.90;;
40599;SDS011;26309;50.924;4.754;2023-03-03T21:03:25;9.97;;;8.97;;
40599;SDS011;26309;50.924;4.754;2023-03-03T21:06:09;9.83;;;8.93;;
40599;SDS011;26309;50.924;4.754;2023-03-03T21:11:09;13.60;;;9.37;;
40599;SDS011;26309;50.924;4.754;2023-03-03T21:13:37;11.63;;;8.73;;
40599;SDS011;26309;50.924;4.754;2023-03-03T21:18:57;16.67;;;11.43;;
40599;SDS011;26309;50.924;4.754;2023-03-03T21:21:25;11.57;;;10.33;;
40599;SDS011;26309;50.924;4.754;2023-03-03T21:23:52;10.20;;;9.20;;
40599;SDS011;26309;50.924;4.754;2023-03-03T21:29:29;11.33;;;9.43;;
40599;SDS011;26309;50.924;4.754;2023-03-03T21:32:05;15.70;;;9.40;;
40599;SDS011;26309;50.924;4.754;2023-03-03T21:34:40;16.40;;;9.17;;
40599;SDS011;26309;50.924;4.754;2023-03-03T21:37:10;12.50;;;11.17;;
40599;SDS011;26309;50.924;4.754;2023-03-03T21:39:40;12.53;;;11.33;;
40599;SDS011;26309;50.924;4.754;2023-03-03T21:42:10;13.90;;;11.33;;
40599;SDS011;26309;50.924;4.754;2023-03-03T21:44:42;13.30;;;11.97;;
40599;SDS011;26309;50.924;4.754;2023-03-03T21:47:16;13.57;;;11.63;;
40599;SDS011;26309;50.924;4.754;2023-03-03T21:49:44;14.00;;;12.60;;
40599;SDS011;26309;50.924;4.754;2023-03-03T21:52:13;14.13;;;12.43;;
40599;SDS011;26309;50.924;4.754;2023-03-03T21:54:41;16.53;;;11.87;;
40599;SDS011;26309;50.924;4.754;2023-03-03T21:57:08;15.40;;;12.27;;
40599;SDS011;26309;50.924;4.754;2023-03-03T21:59:34;13.73;;;12.20;;
40599;SDS011;26309;50.924;4.754;2023-03-03T22:02:01;14.87;;;13.33;;
40599;SDS011;26309;50.924;4.754;2023-03-03T22:04:27;14.60;;;13.10;;
40599;SDS011;26309;50.924;4.754;2023-03-03T22:06:53;16.77;;;12.63;;
40599;SDS011;26309;50.924;4.754;2023-03-03T22:09:20;15.97;;;12.93;;
40599;SDS011;26309;50.924;4.754;2023-03-03T22:11:46;18.93;;;14.07;;
40599;SDS011;26309;50.924;4.754;2023-03-03T22:14:12;15.50;;;13.20;;